Rome City, Indiana
Current Conditions -  °F | °C
As of 9:55 AM on Thursday 27 Nov 2014 (Local Time) from KANQ Reporting Station
Broken Clouds Broken Clouds  
Wind Chill: 21°   Ceiling: 4400
Heat Index: 28°   Visibility: 10mi
Dew Point: 21°   Wind: 7mph
Humidity: 74%   Direction: 290°WNW
Pressure: 30.19"   Gusts: NA
Location:  41.5°N, 85.38°W
Report Text: KANQ 271455Z AUTO 29006KT 10SM FEW035 BKN044 M02/M06 A3019 RMK
Loading
Personal Weather Stations






























Interactive Weather Map New forecast layout! Learn more

10-Day Weather Forecast

Advertisements
Track Severe Weather on mobile